Latest Weather Observations for Mount Magnet Airport

IDW60801

Issued at 12:33 pm WST Tuesday 26 July 2016 (issued every 30 minutes, with the page automatically refreshed every 10 minutes)

About weather observations | Map of weather stations | Latest weather observations for WA | Other Formats
Station Details ID: 007600 Name: MOUNT MAGNET AERO Lat: -28.12 Lon: 117.84 Height: 407.0 m
Data from the previous 72 hours. | See also: Recent months at Mount Magnet Airport
Date/Time
WST
Temp
°C
App
Temp
°C
Dew
Point
°C
Rel
Hum
%
Delta-T
°C
Wind Press
QNH
hPa
Press
MSL
hPa
Rain since
9am
mm
Dir  Spd
km/h
Gust
km/h
Spd
kts
Gust
kts
26/12:30pm 15.9 12.1 3.7 44 5.7 E 13 19 7 10 1026.9 1026.7 0.0
26/12:00pm 15.3 11.2 4.1 47 5.3 E 15 22 8 12 1027.2 1027.0 0.0
26/11:30am 14.3 10.2 4.6 52 4.6 ESE 15 20 8 11 1027.7 1027.5 0.0
26/11:00am 13.9 9.8 4.5 53 4.4 ESE 15 20 8 11 1028.2 1028.0 0.0
26/10:30am 13.1 9.1 5.0 58 3.8 E 15 20 8 11 1028.4 1028.2 0.0
26/10:00am 11.7 6.9 4.7 62 3.2 E 19 22 10 12 1028.4 1028.2 0.0
26/09:30am 10.6 6.7 5.2 69 2.5 ESE 15 19 8 10 1028.4 1028.2 0.0
26/09:00am 8.6 5.8 5.0 78 1.6 ESE 9 11 5 6 1028.2 1028.0 0.0
26/08:30am 7.0 4.0 4.0 81 1.3 ESE 9 13 5 7 1027.9 1027.7 0.0
26/08:00am 5.8 3.6 3.6 86 0.9 ESE 4 9 2 5 1027.4 1027.2 0.0
26/07:30am 4.0 2.5 3.1 94 0.4 CALM 0 0 0 0 1027.1 1026.9 0.0
26/07:00am 3.1 1.5 2.4 95 0.3 CALM 0 0 0 0 1026.6 1026.5 0.0
26/06:30am 3.5 1.9 2.5 93 0.4 CALM 0 0 0 0 1026.5 1026.3 0.0
26/06:00am 3.7 1.0 2.5 92 0.5 SE 6 9 3 5 1026.4 1026.2 0.0
26/05:30am 3.7 2.1 2.7 93 0.4 CALM 0 0 0 0 1026.2 1026.0 0.0
26/05:00am 3.9 2.3 2.4 90 0.6 CALM 0 0 0 0 1026.2 1026.0 0.0
26/04:30am 4.0 2.4 2.4 89 0.7 CALM 0 0 0 0 1026.3 1026.1 0.0
26/04:00am 4.3 1.3 2.3 87 0.8 SSE 7 9 4 5 1026.5 1026.3 0.0
26/03:30am 4.5 1.8 2.4 86 0.9 SE 6 9 3 5 1026.5 1026.3 0.0
26/03:00am 4.6 1.3 2.3 85 0.9 SE 9 13 5 7 1026.3 1026.1 0.0
26/02:30am 5.4 2.5 2.6 82 1.2 SSE 7 9 4 5 1026.2 1026.0 0.0
26/02:00am 5.9 2.6 2.5 79 1.4 SSE 9 11 5 6 1026.0 1025.8 0.0
26/01:30am 6.4 3.7 2.5 76 1.6 S 6 9 3 5 1025.8 1025.6 0.0
26/01:00am 6.2 3.0 3.0 80 1.4 S 9 11 5 6 1026.0 1025.8 0.0
26/12:30am 6.1 4.3 3.4 83 1.2 SSW 2 11 1 6 1026.1 1025.9 0.0
26/12:00am 6.8 5.3 2.9 76 1.7 CALM 0 0 0 0 1025.9 1025.7 0.0
 
Date/Time
WST
Temp
°C
App
Temp
°C
Dew
Point
°C
Rel
Hum
%
Delta-T
°C
Wind Press
QNH
hPa
Press
MSL
hPa
Rain since
9am
mm
Dir  Spd
km/h
Gust
km/h
Spd
kts
Gust
kts
25/11:30pm 6.8 5.2 2.7 75 1.7 CALM 0 0 0 0 1026.2 1026.0 0.0
25/11:00pm 7.8 6.4 3.3 73 1.9 CALM 0 0 0 0 1026.2 1026.0 0.0
25/10:30pm 8.7 5.9 2.9 67 2.5 SSW 7 9 4 5 1026.3 1026.1 0.0
25/10:00pm 9.0 6.2 3.4 68 2.5 SSW 7 9 4 5 1026.4 1026.2 0.0
25/09:30pm 9.1 6.0 3.7 69 2.4 SSW 9 13 5 7 1026.3 1026.1 0.0
25/09:00pm 9.2 6.4 3.2 66 2.6 SE 7 9 4 5 1026.2 1026.0 0.0
25/08:30pm 10.1 6.9 3.2 62 3.1 SE 9 11 5 6 1025.9 1025.7 0.0
25/08:00pm 11.2 8.2 4.0 61 3.3 SE 9 11 5 6 1025.6 1025.4 0.0
25/07:30pm 11.6 8.5 3.4 57 3.7 SE 9 9 5 5 1025.3 1025.1 0.0
25/07:00pm 12.5 9.6 2.7 51 4.4 SE 7 9 4 5 1025.0 1024.8 0.0
25/06:30pm 13.2 9.9 2.7 49 4.7 SE 9 9 5 5 1024.7 1024.5 0.0
25/06:00pm 14.6 10.9 2.5 44 5.5 SE 11 11 6 6 1024.5 1024.2 0.0
25/05:30pm 15.9 11.6 0.9 36 6.7 SE 13 19 7 10 1024.1 1023.9 0.0
25/05:00pm 16.6 11.1 0.3 33 7.2 SE 19 26 10 14 1023.8 1023.6 0.0
25/04:30pm 17.0 11.6 1.0 34 7.2 SE 19 26 10 14 1023.7 1023.5 0.0
25/04:00pm 17.3 12.2 0.9 33 7.3 SE 17 24 9 13 1023.6 1023.4 0.0
25/03:30pm 17.2 12.0 0.4 32 7.5 SE 17 26 9 14 1023.5 1023.3 0.0
25/03:00pm 16.7 12.0 0.8 34 7.1 ESE 15 22 8 12 1023.5 1023.3 0.0
25/02:30pm 16.8 11.8 1.3 35 7.0 SSE 17 24 9 13 1023.4 1023.2 0.0
25/02:00pm 16.2 11.0 0.3 34 7.0 ESE 17 24 9 13 1023.6 1023.4 0.0
25/01:30pm 15.8 11.6 1.9 39 6.3 SE 13 24 7 13 1023.8 1023.6 0.0
25/01:00pm 15.2 10.3 1.7 40 6.0 ESE 17 20 9 11 1024.5 1024.2 0.0
25/12:30pm 14.9 10.2 1.1 39 6.1 ESE 15 22 8 12 1025.0 1024.8 0.0
25/12:00pm 14.2 9.2 1.5 42 5.6 SE 17 24 9 13 1025.6 1025.4 0.0
25/11:30am 13.9 8.9 1.5 43 5.5 ESE 17 22 9 12 1026.0 1025.8 0.0
25/11:00am 13.7 8.4 1.7 44 5.3 E 19 24 10 13 1026.4 1026.2 0.0
25/10:30am 12.8 8.4 2.9 51 4.5 ESE 15 19 8 10 1026.5 1026.3 0.0
25/10:00am 11.5 7.9 2.8 55 3.9 E 11 15 6 8 1026.6 1026.5 0.0
25/09:30am 9.8 6.3 3.3 64 2.9 E 11 15 6 8 1026.7 1026.6 0.0
25/09:00am 8.2 4.6 3.1 70 2.2 E 11 15 6 8 1026.6 1026.5 0.0
25/08:30am 6.5 4.3 3.1 79 1.5 ESE 4 9 2 5 1026.6 1026.5 0.0
25/08:00am 4.2 2.6 2.2 87 0.8 CALM 0 0 0 0 1026.2 1026.0 0.0
25/07:30am 3.6 1.7 2.6 93 0.4 E 2 6 1 3 1025.9 1025.7 0.0
25/07:00am 2.6 -0.3 1.7 94 0.4 E 6 9 3 5 1025.5 1025.3 0.0
25/06:30am 2.7 1.0 2.0 95 0.3 CALM 0 0 0 0 1025.2 1025.0 0.0
25/06:00am 2.9 1.3 2.2 95 0.3 CALM 0 0 0 0 1025.0 1024.8 0.0
25/05:30am 3.1 1.5 2.4 95 0.3 CALM 0 0 0 0 1024.7 1024.5 0.0
25/05:00am 3.3 1.7 2.6 95 0.3 CALM 0 0 0 0 1024.5 1024.2 0.0
25/04:30am 3.6 2.1 2.9 95 0.3 CALM 0 0 0 0 1024.5 1024.2 0.0
25/04:00am 3.4 1.8 2.4 93 0.4 CALM 0 0 0 0 1024.5 1024.2 0.0
25/03:30am 3.5 0.8 2.5 93 0.4 ESE 6 7 3 4 1024.5 1024.2 0.0
25/03:00am 4.4 1.7 2.9 90 0.6 ESE 6 7 3 4 1024.8 1024.6 0.0
25/02:30am 4.3 1.7 3.0 91 0.5 ESE 6 7 3 4 1024.9 1024.7 0.0
25/02:00am 4.8 2.2 3.3 90 0.6 ESE 6 6 3 3 1024.9 1024.7 0.0
25/01:30am 4.8 2.2 3.3 90 0.6 ESE 6 7 3 4 1024.9 1024.7 0.0
25/01:00am 5.4 2.7 3.7 89 0.7 ESE 7 9 4 5 1024.9 1024.7 0.0
25/12:30am 6.5 4.0 4.0 84 1.1 ESE 6 7 3 4 1025.0 1024.8 0.0
25/12:00am 6.3 3.8 3.8 84 1.1 ESE 6 7 3 4 1025.1 1024.9 0.0
 
Date/Time
WST
Temp
°C
App
Temp
°C
Dew
Point
°C
Rel
Hum
%
Delta-T
°C
Wind Press
QNH
hPa
Press
MSL
hPa
Rain since
9am
mm
Dir  Spd
km/h
Gust
km/h
Spd
kts
Gust
kts
24/11:30pm 7.1 4.1 4.1 81 1.3 ESE 9 11 5 6 1025.2 1025.0 0.0
24/11:00pm 7.7 4.8 4.7 81 1.3 SE 9 11 5 6 1025.4 1025.2 0.0
24/10:30pm 8.1 4.9 5.2 82 1.3 ENE 11 11 6 6 1025.4 1025.2 0.0
24/10:00pm 8.2 5.5 5.5 83 1.2 ENE 9 11 5 6 1025.4 1025.2 0.0
24/09:30pm 8.4 5.7 5.7 83 1.3 ENE 9 11 5 6 1025.5 1025.3 0.0
24/09:00pm 8.7 6.4 5.6 81 1.4 NNE 7 9 4 5 1025.6 1025.4 0.0
24/08:30pm 9.8 7.5 5.6 75 2.0 NNE 7 9 4 5 1025.4 1025.2 0.0
24/08:00pm 10.3 8.2 6.6 78 1.8 NNE 7 7 4 4 1025.3 1025.1 0.0
24/07:30pm 10.3 8.3 6.3 76 1.9 NNE 6 6 3 3 1025.0 1024.8 0.0
24/07:00pm 11.2 9.3 6.7 74 2.2 NNE 6 7 3 4 1024.6 1024.4 0.0
24/06:30pm 12.3 10.0 5.7 64 3.2 NNE 7 7 4 4 1024.4 1024.1 0.0
24/06:00pm 13.2 10.9 5.6 60 3.6 NNE 7 9 4 5 1023.9 1023.7 0.0
24/05:30pm 14.4 11.2 5.2 54 4.4 NNE 11 15 6 8 1023.6 1023.4 0.0
24/05:00pm 15.5 12.4 5.4 51 4.9 ENE 11 15 6 8 1023.4 1023.2 0.0
24/04:30pm 15.5 11.9 5.1 50 5.0 ENE 13 20 7 11 1023.1 1022.9 0.0
24/04:00pm 15.7 12.5 5.0 49 5.1 ESE 11 20 6 11 1023.0 1022.8 0.0
24/03:30pm 15.5 11.5 5.1 50 5.0 ENE 15 20 8 11 1023.0 1022.8 0.0
24/03:00pm 15.6 12.0 5.2 50 5.0 ENE 13 20 7 11 1022.8 1022.6 0.0
24/02:30pm 15.2 11.1 4.6 49 5.1 E 15 20 8 11 1023.1 1022.9 0.0
24/02:00pm 15.0 10.5 4.1 48 5.1 ESE 17 22 9 12 1023.3 1023.1 0.0
24/01:30pm 14.9 10.9 4.9 51 4.8 ENE 15 24 8 13 1023.8 1023.6 0.0
24/01:00pm 14.0 9.6 4.9 54 4.3 E 17 26 9 14 1024.3 1024.0 0.0
24/12:30pm 14.3 9.9 4.9 53 4.5 E 17 24 9 13 1024.7 1024.5 0.0
24/12:00pm 13.6 8.8 4.7 55 4.2 E 19 28 10 15 1025.3 1025.1 0.0
24/11:30am 12.9 8.0 5.1 59 3.7 E 20 33 11 18 1025.7 1025.5 0.0
24/11:00am 12.2 6.9 5.1 62 3.3 E 22 30 12 16 1026.2 1026.0 0.0
24/10:30am 11.6 7.0 5.5 66 2.9 ENE 19 28 10 15 1026.5 1026.3 0.0
24/10:00am 10.8 6.0 5.6 70 2.4 ESE 20 26 11 14 1026.5 1026.3 0.0
24/09:30am 9.5 4.6 5.1 74 2.0 ESE 20 26 11 14 1026.5 1026.3 0.0
24/09:00am 8.1 3.8 5.4 83 1.2 SE 17 22 9 12 1026.5 1026.3 0.0
24/08:30am 6.0 2.6 4.2 88 0.8 ESE 11 15 6 8 1026.2 1026.0 0.0
24/08:00am 4.1 1.2 2.8 91 0.5 E 7 9 4 5 1026.1 1025.9 0.0
24/07:30am 3.6 0.8 2.3 91 0.5 SE 6 9 3 5 1025.9 1025.7 0.0
24/07:00am 3.3 0.9 2.1 92 0.5 SE 4 9 2 5 1025.3 1025.1 0.0
24/06:30am 3.4 1.8 2.4 93 0.4 CALM 0 2 0 1 1025.0 1024.8 0.0
24/06:00am 3.2 1.6 2.3 94 0.4 CALM 0 0 0 0 1024.5 1024.2 0.0
24/05:30am 3.4 1.8 2.4 93 0.4 CALM 0 0 0 0 1024.1 1023.9 0.0
24/05:00am 3.6 2.0 2.4 92 0.5 CALM 0 0 0 0 1023.9 1023.7 0.0
24/04:30am 3.8 2.2 2.5 91 0.5 CALM 0 0 0 0 1024.0 1023.8 0.0
24/04:00am 4.6 1.9 2.9 89 0.7 SSE 6 7 3 4 1024.0 1023.8 0.0
24/03:30am 4.5 3.0 2.8 89 0.7 CALM 0 0 0 0 1024.1 1023.9 0.0
24/03:00am 5.1 2.3 3.4 89 0.7 SSE 7 7 4 4 1024.0 1023.8 0.0
24/02:30am 4.5 3.1 3.3 92 0.5 CALM 0 0 0 0 1024.0 1023.8 0.0
24/02:00am 4.8 3.4 3.6 92 0.5 CALM 0 0 0 0 1024.0 1023.8 0.0
24/01:30am 4.6 3.2 3.4 92 0.5 CALM 0 0 0 0 1024.0 1023.8 0.0
24/01:00am 5.0 3.3 3.8 92 0.5 SSE 2 6 1 3 1024.3 1024.0 0.0
24/12:30am 5.1 3.7 3.8 91 0.6 CALM 0 0 0 0 1024.4 1024.1 0.0
24/12:00am 5.7 4.3 3.5 86 0.9 CALM 0 0 0 0 1024.4 1024.1 0.0
 
Date/Time
WST
Temp
°C
App
Temp
°C
Dew
Point
°C
Rel
Hum
%
Delta-T
°C
Wind Press
QNH
hPa
Press
MSL
hPa
Rain since
9am
mm
Dir  Spd
km/h
Gust
km/h
Spd
kts
Gust
kts
23/11:30pm 5.7 3.1 3.4 85 1.0 SSE 6 9 3 5 1024.6 1024.4 0.0
23/11:00pm 6.5 3.8 3.7 82 1.2 SSE 7 7 4 4 1024.6 1024.4 0.0
23/10:30pm 6.9 4.2 3.7 80 1.4 SSE 7 9 4 5 1024.5 1024.2 0.0
23/10:00pm 7.9 4.5 3.9 76 1.8 SSE 11 13 6 7 1024.5 1024.2 0.0
23/09:30pm 8.2 5.6 4.0 75 1.9 SSE 7 11 4 6 1024.4 1024.1 0.0
23/09:00pm 8.7 5.7 3.9 72 2.1 SSE 9 11 5 6 1024.0 1023.8 0.0
23/08:30pm 9.0 5.9 3.8 70 2.3 S 9 11 5 6 1023.8 1023.6 0.0
23/08:00pm 9.7 6.6 3.7 66 2.7 S 9 11 5 6 1023.5 1023.3 0.0
23/07:30pm 10.4 7.0 4.1 65 2.9 S 11 13 6 7 1023.6 1023.4 0.0
23/07:00pm 10.8 7.8 4.0 63 3.1 S 9 11 5 6 1023.5 1023.3 0.0
23/06:30pm 11.8 8.4 3.8 58 3.7 S 11 13 6 7 1023.3 1023.1 0.0
23/06:00pm 12.5 8.2 3.2 53 4.2 S 15 19 8 10 1023.1 1022.9 0.0
23/05:30pm 13.2 8.7 2.1 47 4.9 S 15 20 8 11 1022.7 1022.5 0.0
23/05:00pm 13.8 8.8 1.5 43 5.4 S 17 24 9 13 1022.5 1022.3 0.0
23/04:30pm 14.2 10.0 1.5 42 5.6 SSW 13 17 7 9 1022.4 1022.1 0.0
23/04:00pm 14.1 9.8 1.1 41 5.7 SW 13 17 7 9 1022.3 1022.0 0.0
23/03:30pm 14.1 10.1 2.7 46 5.2 SW 13 22 7 12 1022.2 1021.9 0.0
23/03:00pm 13.8 8.8 1.1 42 5.5 SSW 17 24 9 13 1022.4 1022.1 0.0
23/02:30pm 13.5 9.4 2.1 46 5.1 S 13 20 7 11 1022.5 1022.3 0.0
23/02:00pm 13.0 8.9 2.3 48 4.8 S 13 24 7 13 1022.6 1022.4 0.0
23/01:30pm 12.8 8.3 2.4 49 4.6 S 15 20 8 11 1022.9 1022.7 0.0
23/01:00pm 13.2 8.7 2.1 47 4.9 SW 15 24 8 13 1023.0 1022.8 0.0

Other Formats:

Comma delimited format used in spreadsheet applications
http://www.bom.gov.au/fwo/IDW60801/IDW60801.94429.axf

JavaScript Object Notation format (JSON) in row-major order
http://www.bom.gov.au/fwo/IDW60801/IDW60801.94429.json